createdAt,value
2022-08-01T00:02:26.127Z,22.35
2022-08-01T00:05:29.722Z,22.34
2022-08-01T00:08:32.950Z,22.45
2022-08-01T00:11:37.517Z,22.39
2022-08-01T00:14:40.812Z,22.38
2022-08-01T00:17:44.730Z,22.35
2022-08-01T00:20:47.819Z,22.33
2022-08-01T00:23:51.015Z,22.25
2022-08-01T00:26:55.422Z,22.19
2022-08-01T00:30:11.156Z,22.17
2022-08-01T00:33:17.306Z,22.16
2022-08-01T00:36:20.346Z,21.98
2022-08-01T00:39:23.306Z,21.88
2022-08-01T00:42:27.632Z,21.86
2022-08-01T00:45:30.679Z,21.83
2022-08-01T00:48:33.665Z,21.80
2022-08-01T00:51:36.789Z,21.72
2022-08-01T00:54:40.850Z,21.76
2022-08-01T00:58:03.826Z,21.73
2022-08-01T01:01:08.786Z,21.65
2022-08-01T01:04:11.961Z,21.56
2022-08-01T01:07:26.577Z,21.46
2022-08-01T01:10:37.618Z,21.43
2022-08-01T01:13:50.307Z,21.37
2022-08-01T01:16:55.819Z,21.46
2022-08-01T01:20:02.312Z,21.53
2022-08-01T01:23:23.547Z,21.51
2022-08-01T01:26:41.189Z,21.57
2022-08-01T01:30:00.495Z,21.61
2022-08-01T01:33:08.301Z,21.49
2022-08-01T01:36:13.862Z,21.52
2022-08-01T01:39:18.245Z,21.50
2022-08-01T01:42:22.864Z,21.48
2022-08-01T01:45:28.238Z,21.46
2022-08-01T01:48:31.814Z,21.45
2022-08-01T01:51:35.524Z,21.39
2022-08-01T01:54:49.815Z,21.47
2022-08-01T01:57:54.412Z,21.34
2022-08-01T02:01:00.608Z,21.30
2022-08-01T02:04:07.960Z,21.29
2022-08-01T02:07:13.493Z,21.27
2022-08-01T02:10:19.681Z,21.20
2022-08-01T02:13:32.827Z,21.16
2022-08-01T02:16:39.294Z,21.15
2022-08-01T02:19:42.325Z,21.20
2022-08-01T02:22:52.255Z,21.04
2022-08-01T02:26:09.183Z,20.99
2022-08-01T02:29:24.695Z,21.00
2022-08-01T02:32:36.068Z,21.00
2022-08-01T02:36:30.352Z,21.00
2022-08-01T02:39:12.492Z,20.83
2022-08-01T02:42:17.325Z,20.82
2022-08-01T02:45:23.097Z,20.84
2022-08-01T02:48:28.608Z,20.88
2022-08-01T02:51:33.859Z,20.82
2022-08-01T02:54:38.536Z,20.87
2022-08-01T02:57:51.503Z,20.85
2022-08-01T03:00:56.267Z,20.83
2022-08-01T03:04:01.376Z,20.77
2022-08-01T03:07:08.474Z,20.75
2022-08-01T03:10:12.432Z,20.64
2022-08-01T03:13:17.493Z,20.61
2022-08-01T03:16:22.666Z,20.64
2022-08-01T03:19:28.830Z,20.54
2022-08-01T03:22:34.386Z,20.56
2022-08-01T03:25:42.389Z,20.59
2022-08-01T03:28:48.332Z,20.51
2022-08-01T03:31:51.925Z,20.55
2022-08-01T03:34:56.311Z,20.55
2022-08-01T03:38:17.940Z,20.49
2022-08-01T03:41:23.442Z,20.53
2022-08-01T03:44:31.063Z,20.55
2022-08-01T03:47:40.825Z,20.57
2022-08-01T03:50:53.220Z,20.60
2022-08-01T03:53:58.148Z,20.54
2022-08-01T03:57:03.185Z,20.50
2022-08-01T04:00:10.001Z,20.47
2022-08-01T04:03:16.504Z,20.41
2022-08-01T04:06:21.607Z,20.41
2022-08-01T04:09:24.654Z,20.36
2022-08-01T04:12:28.124Z,20.42
2022-08-01T04:15:31.285Z,20.51
2022-08-01T04:18:34.503Z,20.46
2022-08-01T04:21:39.694Z,20.44
2022-08-01T04:24:44.752Z,20.53
2022-08-01T04:27:52.383Z,20.55
2022-08-01T04:31:02.123Z,20.57
2022-08-01T04:34:07.937Z,20.61
2022-08-01T04:37:13.494Z,20.56
2022-08-01T04:40:18.154Z,20.58
2022-08-01T04:43:21.405Z,20.59
2022-08-01T04:46:24.761Z,20.64
2022-08-01T04:49:28.563Z,20.67
2022-08-01T04:52:36.937Z,20.62
2022-08-01T04:55:39.916Z,20.60
2022-08-01T04:58:43.635Z,20.65
2022-08-01T05:01:51.940Z,20.61
2022-08-01T05:04:56.066Z,20.56
2022-08-01T05:08:01.189Z,20.52
2022-08-01T05:11:04.323Z,20.48
2022-08-01T05:14:07.594Z,20.40
2022-08-01T05:17:11.992Z,20.42
2022-08-01T05:20:15.099Z,20.43
2022-08-01T05:23:42.352Z,20.42
2022-08-01T05:26:43.277Z,20.46
2022-08-01T05:29:47.535Z,20.42
2022-08-01T05:32:50.527Z,20.34
2022-08-01T05:35:53.508Z,20.40
2022-08-01T05:38:58.106Z,20.41
2022-08-01T05:42:01.194Z,20.39
2022-08-01T05:45:04.589Z,20.39
2022-08-01T05:48:08.188Z,20.43
2022-08-01T05:51:11.186Z,20.50
2022-08-01T05:54:15.721Z,20.63
2022-08-01T05:57:18.713Z,20.69
2022-08-01T06:00:22.211Z,20.74
2022-08-01T06:03:25.416Z,20.68
2022-08-01T06:06:28.429Z,20.69
2022-08-01T06:09:32.746Z,20.70
2022-08-01T06:12:36.075Z,20.86
2022-08-01T06:15:39.680Z,20.82
2022-08-01T06:18:42.721Z,20.85
2022-08-01T06:21:45.769Z,20.84
2022-08-01T06:24:50.227Z,20.96
2022-08-01T06:27:53.257Z,21.04
2022-08-01T06:30:56.294Z,21.12
2022-08-01T06:33:59.302Z,21.01
2022-08-01T06:37:05.879Z,21.04
2022-08-01T06:40:17.186Z,21.05
2022-08-01T06:43:20.676Z,21.03
2022-08-01T06:46:23.650Z,21.04
2022-08-01T06:49:33.633Z,21.11
2022-08-01T06:52:36.999Z,21.11
2022-08-01T06:55:41.575Z,21.20
2022-08-01T06:58:44.624Z,21.28
2022-08-01T07:01:47.659Z,21.35
2022-08-01T07:04:50.847Z,21.39
2022-08-01T07:07:54.130Z,21.46
2022-08-01T07:11:00.462Z,21.38
2022-08-01T07:14:04.219Z,21.47
2022-08-01T07:17:07.346Z,21.54
2022-08-01T07:20:14.028Z,21.32
2022-08-01T07:23:22.552Z,21.28
2022-08-01T07:26:27.661Z,21.36
2022-08-01T07:29:30.710Z,21.30
2022-08-01T07:32:35.752Z,21.32
2022-08-01T07:35:39.256Z,21.49
2022-08-01T07:38:42.228Z,21.56
2022-08-01T07:42:06.451Z,21.51
2022-08-01T07:45:10.810Z,21.48
2022-08-01T07:48:13.860Z,21.40
2022-08-01T07:51:16.810Z,21.47
2022-08-01T07:54:19.769Z,21.42
2022-08-01T07:57:24.234Z,21.43
2022-08-01T08:00:28.466Z,21.34
2022-08-01T08:03:31.666Z,21.51
2022-08-01T08:06:34.688Z,21.74
2022-08-01T08:09:37.961Z,21.72
2022-08-01T08:12:42.616Z,21.73
2022-08-01T08:15:48.512Z,21.52
2022-08-01T08:18:51.856Z,21.39
2022-08-01T08:21:54.939Z,21.20
2022-08-01T08:25:00.698Z,21.22
2022-08-01T08:28:05.969Z,21.14
2022-08-01T08:31:25.444Z,21.20
2022-08-01T08:34:33.016Z,21.24
2022-08-01T08:37:42.766Z,21.32
2022-08-01T08:40:50.582Z,21.28
2022-08-01T08:43:55.310Z,21.35
2022-08-01T08:47:03.038Z,21.53
2022-08-01T08:50:07.797Z,21.59
2022-08-01T08:53:14.767Z,21.67
2022-08-01T08:56:21.615Z,21.88
2022-08-01T08:59:26.198Z,22.13
2022-08-01T09:02:29.138Z,22.16
2022-08-01T09:05:38.719Z,21.96
2022-08-01T09:08:42.234Z,21.93
2022-08-01T09:11:45.643Z,21.68
2022-08-01T09:15:01.494Z,21.80
2022-08-01T09:18:04.596Z,21.90
2022-08-01T09:21:19.554Z,22.17
2022-08-01T09:24:30.652Z,22.26
2022-08-01T09:27:34.107Z,22.28
2022-08-01T09:30:41.665Z,22.24
2022-08-01T09:33:52.679Z,22.19
2022-08-01T09:36:58.273Z,22.22
2022-08-01T09:40:01.296Z,22.20
2022-08-01T09:43:15.046Z,22.19
2022-08-01T09:46:20.496Z,22.28
2022-08-01T09:49:51.809Z,22.39
2022-08-01T09:52:57.019Z,22.33
2022-08-01T09:56:12.229Z,22.42
2022-08-01T09:59:16.868Z,22.23
2022-08-01T10:02:33.100Z,22.12
2022-08-01T10:05:38.139Z,22.12
2022-08-01T10:08:48.710Z,22.17
2022-08-01T10:11:53.456Z,22.22
2022-08-01T10:15:00.399Z,22.08
2022-08-01T10:18:21.357Z,22.15
2022-08-01T10:21:47.598Z,22.18
2022-08-01T10:24:57.959Z,22.22
2022-08-01T10:28:04.372Z,22.22
2022-08-01T10:31:12.730Z,22.37
2022-08-01T10:34:20.792Z,22.31
2022-08-01T10:37:26.956Z,22.15
2022-08-01T10:40:31.505Z,22.05
2022-08-01T10:43:35.336Z,22.13
2022-08-01T10:46:41.765Z,22.17
2022-08-01T10:49:58.807Z,22.24
2022-08-01T10:53:16.123Z,22.28
2022-08-01T10:56:19.942Z,22.32
2022-08-01T10:59:49.827Z,22.46
2022-08-01T11:03:01.535Z,22.32
2022-08-01T11:06:07.452Z,22.40
2022-08-01T11:09:36.607Z,22.40
2022-08-01T11:12:44.035Z,22.38
2022-08-01T11:15:50.291Z,22.50
2022-08-01T11:18:54.237Z,22.51
2022-08-01T11:22:05.010Z,22.73
2022-08-01T11:25:08.201Z,22.82
2022-08-01T11:28:30.217Z,22.84
2022-08-01T11:31:38.393Z,22.55
2022-08-01T11:34:57.876Z,22.35
2022-08-01T11:38:27.677Z,22.24
2022-08-01T11:41:37.235Z,22.01
2022-08-01T11:44:52.098Z,21.80
2022-08-01T11:47:55.259Z,21.65
2022-08-01T11:51:02.088Z,21.69
2022-08-01T11:54:07.017Z,21.83
2022-08-01T11:57:14.162Z,21.95
2022-08-01T12:00:19.890Z,21.97
2022-08-01T12:03:33.582Z,22.11
2022-08-01T12:06:37.358Z,22.29
2022-08-01T12:09:47.638Z,22.47
2022-08-01T12:12:52.864Z,22.56
2022-08-01T12:15:57.207Z,22.71
2022-08-01T12:19:00.344Z,22.98
2022-08-01T12:22:14.917Z,23.14
2022-08-01T12:25:20.239Z,23.40
2022-08-01T12:28:23.809Z,23.64
2022-08-01T12:31:34.615Z,23.46
2022-08-01T12:34:37.584Z,23.45
2022-08-01T12:37:44.665Z,23.41
2022-08-01T12:40:53.104Z,23.33
2022-08-01T12:43:58.084Z,23.05
2022-08-01T12:47:02.868Z,22.84
2022-08-01T12:50:10.302Z,23.14
2022-08-01T12:53:16.822Z,23.47
2022-08-01T12:56:33.886Z,23.65
2022-08-01T12:59:36.869Z,23.77
2022-08-01T13:02:41.025Z,23.99
2022-08-01T13:05:46.747Z,23.88
2022-08-01T13:08:49.784Z,24.13
2022-08-01T13:12:04.149Z,24.61
2022-08-01T13:15:25.900Z,24.87
2022-08-01T13:18:31.135Z,24.50
2022-08-01T13:21:34.525Z,23.97
2022-08-01T13:25:14.336Z,23.89
2022-08-01T13:28:21.563Z,23.70
2022-08-01T13:31:34.863Z,23.63
2022-08-01T13:34:38.251Z,23.57
2022-08-01T13:37:44.111Z,23.43
2022-08-01T13:40:47.911Z,23.50
2022-08-01T13:43:58.717Z,23.47
2022-08-01T13:47:15.454Z,23.54
2022-08-01T13:50:20.215Z,23.72
2022-08-01T13:53:23.400Z,23.62
2022-08-01T13:56:28.478Z,23.63
2022-08-01T13:59:33.042Z,23.62
2022-08-01T14:02:36.122Z,23.61
2022-08-01T14:05:40.472Z,23.52
2022-08-01T14:08:46.001Z,23.38
2022-08-01T14:11:49.217Z,23.38
2022-08-01T14:14:53.529Z,23.43
2022-08-01T14:17:56.626Z,23.49
2022-08-01T14:21:05.293Z,23.62
2022-08-01T14:24:10.612Z,23.89
2022-08-01T14:27:13.714Z,24.04
2022-08-01T14:30:18.281Z,24.17
2022-08-01T14:33:21.297Z,24.45
2022-08-01T14:36:30.155Z,24.30
2022-08-01T14:39:34.091Z,24.68
2022-08-01T14:42:39.604Z,25.29
2022-08-01T14:45:44.096Z,26.32
2022-08-01T14:48:47.101Z,26.95
2022-08-01T14:51:50.066Z,26.84
2022-08-01T14:54:53.766Z,26.90
2022-08-01T14:57:56.834Z,26.92
2022-08-01T15:01:01.493Z,26.28
2022-08-01T15:04:04.784Z,25.67
2022-08-01T15:07:13.237Z,25.38
2022-08-01T15:10:17.126Z,25.11
2022-08-01T15:13:20.194Z,24.68
2022-08-01T15:16:25.366Z,24.44
2022-08-01T15:19:28.847Z,24.41
2022-08-01T15:22:33.000Z,24.38
2022-08-01T15:25:40.858Z,24.12
2022-08-01T15:28:45.298Z,23.93
2022-08-01T15:31:49.693Z,23.91
2022-08-01T15:34:53.374Z,23.83
2022-08-01T15:37:57.807Z,24.01
2022-08-01T15:41:00.835Z,24.10
2022-08-01T15:44:04.426Z,24.24
2022-08-01T15:47:10.495Z,24.44
2022-08-01T15:50:13.487Z,24.58
2022-08-01T15:53:16.579Z,24.59
2022-08-01T15:56:19.618Z,24.73
2022-08-01T15:59:23.099Z,24.86
2022-08-01T16:02:27.730Z,25.05
2022-08-01T16:05:30.749Z,24.78
2022-08-01T16:08:33.725Z,25.15
2022-08-01T16:11:42.362Z,25.26
2022-08-01T16:14:46.442Z,25.17
2022-08-01T16:17:50.729Z,25.07
2022-08-01T16:20:53.953Z,24.97
2022-08-01T16:23:56.915Z,25.03
2022-08-01T16:27:00.231Z,24.81
2022-08-01T16:30:03.333Z,24.60
2022-08-01T16:33:10.242Z,24.68
2022-08-01T16:36:30.820Z,24.51
2022-08-01T16:39:34.016Z,24.73
2022-08-01T16:42:38.226Z,24.61
2022-08-01T16:45:42.955Z,24.59
2022-08-01T16:48:47.471Z,24.59
2022-08-01T16:51:50.676Z,24.40
2022-08-01T16:54:54.082Z,24.45
2022-08-01T16:57:57.660Z,24.36
2022-08-01T17:01:58.085Z,24.43
2022-08-01T17:04:25.471Z,24.37
2022-08-01T17:07:28.843Z,24.39
2022-08-01T17:10:31.889Z,24.48
2022-08-01T17:13:34.878Z,24.52
2022-08-01T17:16:37.949Z,24.48
2022-08-01T17:19:42.592Z,24.26
2022-08-01T17:22:45.618Z,24.32
2022-08-01T17:25:48.607Z,24.28
2022-08-01T17:28:51.662Z,24.29
2022-08-01T17:31:54.658Z,24.25
2022-08-01T17:34:59.167Z,24.19
2022-08-01T17:38:02.341Z,24.14
2022-08-01T17:41:05.446Z,24.10
2022-08-01T17:44:09.083Z,23.91
2022-08-01T17:47:14.663Z,23.90
2022-08-01T17:50:28.481Z,23.98
2022-08-01T17:53:34.910Z,23.87
2022-08-01T17:56:41.897Z,23.84
2022-08-01T17:59:47.260Z,23.86
2022-08-01T18:02:50.526Z,23.85
2022-08-01T18:05:54.808Z,23.80
2022-08-01T18:08:59.590Z,23.63
2022-08-01T18:12:05.784Z,23.64
2022-08-01T18:15:15.292Z,23.50
2022-08-01T18:18:20.130Z,23.44
2022-08-01T18:21:42.724Z,23.45
2022-08-01T18:24:46.053Z,23.51
2022-08-01T18:28:23.336Z,23.46
2022-08-01T18:31:13.122Z,23.40
2022-08-01T18:34:16.388Z,23.33
2022-08-01T18:37:20.698Z,23.33
2022-08-01T18:40:26.788Z,23.30
2022-08-01T18:43:29.990Z,23.33
2022-08-01T18:46:33.359Z,23.36
2022-08-01T18:49:36.422Z,23.43
2022-08-01T18:52:42.805Z,23.33
2022-08-01T18:55:45.801Z,23.40
2022-08-01T18:58:48.754Z,23.28
2022-08-01T19:01:52.040Z,23.33
2022-08-01T19:04:55.698Z,23.20
2022-08-01T19:08:06.242Z,23.18
2022-08-01T19:11:10.298Z,23.18
2022-08-01T19:14:13.841Z,23.14
2022-08-01T19:17:16.970Z,23.21
2022-08-01T19:20:20.266Z,23.20
2022-08-01T19:23:42.059Z,23.07
2022-08-01T19:26:50.017Z,23.16
2022-08-01T19:29:55.642Z,23.17
2022-08-01T19:32:58.759Z,23.23
2022-08-01T19:36:02.205Z,22.99
2022-08-01T19:39:07.522Z,22.91
2022-08-01T19:42:13.153Z,22.81
2022-08-01T19:45:16.411Z,22.65
2022-08-01T19:48:20.544Z,22.75
2022-08-01T19:51:33.186Z,22.64
2022-08-01T19:54:43.067Z,22.61
2022-08-01T19:57:59.246Z,22.60
2022-08-01T20:01:15.447Z,22.55
2022-08-01T20:04:19.456Z,22.38
2022-08-01T20:07:22.403Z,22.29
2022-08-01T20:10:26.838Z,22.26
2022-08-01T20:13:39.141Z,22.26
2022-08-01T20:16:43.159Z,22.23
2022-08-01T20:19:46.131Z,22.29
2022-08-01T20:22:52.081Z,22.29
2022-08-01T20:25:59.475Z,22.20
2022-08-01T20:29:04.827Z,22.17
2022-08-01T20:32:09.069Z,21.97
2022-08-01T20:35:12.336Z,21.96
2022-08-01T20:38:16.359Z,21.99
2022-08-01T20:41:24.210Z,21.97
2022-08-01T20:44:32.586Z,21.93
2022-08-01T20:47:41.234Z,21.93
2022-08-01T20:51:03.014Z,21.90
2022-08-01T20:54:06.733Z,21.82
2022-08-01T20:57:21.227Z,21.84
2022-08-01T21:00:24.902Z,21.74
2022-08-01T21:03:38.287Z,21.73
2022-08-01T21:06:47.160Z,21.74
2022-08-01T21:09:56.430Z,21.71
2022-08-01T21:13:03.809Z,21.70
2022-08-01T21:16:22.790Z,21.64
2022-08-01T21:19:29.363Z,21.61
2022-08-01T21:22:39.306Z,21.50
2022-08-01T21:25:44.497Z,21.52
2022-08-01T21:28:54.111Z,21.54
2022-08-01T21:32:12.262Z,21.44
2022-08-01T21:35:18.630Z,21.27
2022-08-01T21:38:22.901Z,21.15
2022-08-01T21:42:04.710Z,21.21
2022-08-01T21:44:51.104Z,21.14
2022-08-01T21:47:55.553Z,21.05
2022-08-01T21:51:00.427Z,21.03
2022-08-01T21:54:12.898Z,21.09
2022-08-01T21:57:52.680Z,21.11
2022-08-01T22:01:07.940Z,21.12
2022-08-01T22:04:17.096Z,21.13
2022-08-01T22:07:21.119Z,21.10
2022-08-01T22:10:27.006Z,20.88
2022-08-01T22:13:30.021Z,20.88
2022-08-01T22:16:40.271Z,20.81
2022-08-01T22:19:46.291Z,20.71
2022-08-01T22:22:52.777Z,20.61
2022-08-01T22:25:57.411Z,20.50
2022-08-01T22:29:00.806Z,20.40
2022-08-01T22:32:06.167Z,20.32
2022-08-01T22:35:12.996Z,20.20
2022-08-01T22:38:18.594Z,20.10
2022-08-01T22:41:26.936Z,19.98
2022-08-01T22:44:46.264Z,19.88
2022-08-01T22:48:00.753Z,19.88
2022-08-01T22:51:10.715Z,19.86
2022-08-01T22:54:15.702Z,19.79
2022-08-01T22:57:32.689Z,19.66
2022-08-01T23:00:37.296Z,19.54
2022-08-01T23:03:42.738Z,19.47
2022-08-01T23:06:50.202Z,19.35
2022-08-01T23:09:55.427Z,19.39
2022-08-01T23:12:59.556Z,19.48
2022-08-01T23:16:06.130Z,19.54
2022-08-01T23:19:11.186Z,19.57
2022-08-01T23:22:14.802Z,19.63
2022-08-01T23:25:18.012Z,19.63
2022-08-01T23:28:21.580Z,19.56
2022-08-01T23:32:00.673Z,19.55
2022-08-01T23:34:50.260Z,19.39
2022-08-01T23:37:53.583Z,19.40
2022-08-01T23:40:57.554Z,19.44
2022-08-01T23:44:00.621Z,19.37
2022-08-01T23:47:06.599Z,19.32
2022-08-01T23:50:11.873Z,19.33
2022-08-01T23:53:14.988Z,19.23
2022-08-01T23:56:21.918Z,19.23
2022-08-01T23:59:52.390Z,19.25
